Big Bear Station Historical Data
Daily Summary for February 15, 2019 Units:  Metric    English   Both
Next Day »
Daily Weekly Monthly Yearly Custom
  High: Low: Average:
Temperature: 1.8 °C -2.9 °C -0.8 °C
Dew Point: -0.9 °C -6.6 °C -2.2 °C
Humidity: 97% 75% 90%
Wind Speed: 15.9km/h 0km/h 5.3km/h
Wind Gust: -1607.7km/h - -
Wind- - SW
Pressure: 793 hPa 789.6 hPa -
Precipitation: 0.25 mm    
Historical Graphs
 
 
Tabular Data for February 15, 2019
Time Temperature Dew Point Pressure Wind Wind Speed Wind Gust Humidity Rainfall Rate (Hourly)
06:52 -2.8 °C -6.6 °C 792 hPa NW 6.8 km/h -1607.7 km/h 75% 0 mm
07:07 -2.8 °C -5.7 °C 792 hPa Calm   -1607.7 km/h 80% 0 mm
07:23 -2.7 °C -4.9 °C 792.3 hPa NW 4.3 km/h -1607.7 km/h 85% 0 mm
07:38 -2.3 °C -3.8 °C 792 hPa NW 2.7 km/h -1607.7 km/h 89% 0 mm
07:53 -1.9 °C -3.3 °C 792.3 hPa NW 2.7 km/h -1607.7 km/h 90% 0 mm
08:08 -1.6 °C -3.1 °C 792.3 hPa NW 2.7 km/h -1607.7 km/h 90% 0 mm
08:23 -1.4 °C -2.9 °C 792.3 hPa NW 2.7 km/h -1607.7 km/h 89% 0 mm
08:39 -1.1 °C -2.7 °C 792.7 hPa NW 7.6 km/h -1607.7 km/h 89% 0 mm
08:54 -1.1 °C -2.6 °C 793 hPa WNW 6.8 km/h -1607.7 km/h 90% 0 mm
09:10 -1 °C -2.4 °C 792.7 hPa WNW 6 km/h -1607.7 km/h 90% 0 mm
09:25 -1.2 °C -2.5 °C 792.7 hPa NW 10.9 km/h -1607.7 km/h 91% 0 mm
09:41 -1 °C -2.6 °C 793 hPa NW 4.3 km/h -1607.7 km/h 89% 0 mm
09:56 -0.2 °C -2.3 °C 793 hPa NNE 8.5 km/h -1607.7 km/h 86% 0 mm
10:11 0.7 °C -1.7 °C 793 hPa WNW 1.8 km/h -1607.7 km/h 84% 0 mm
10:26 0.6 °C -1.8 °C 793 hPa West 2.7 km/h -1607.7 km/h 84% 0 mm
10:42 0.7 °C -1.3 °C 792.7 hPa NNE 6.8 km/h -1607.7 km/h 86% 0 mm
10:57 0.8 °C -1 °C 793 hPa NW 7.6 km/h -1607.7 km/h 88% 0 mm
11:12 1.2 °C -1.2 °C 793 hPa NW 4.3 km/h -1607.7 km/h 84% 0 mm
11:27 1.8 °C -0.9 °C 793 hPa NW 7.6 km/h -1607.7 km/h 82% 0 mm
11:42 0.9 °C -1.7 °C 793 hPa SW 5.1 km/h -1607.7 km/h 83% 0 mm
11:58 1.4 °C -1.2 °C 793 hPa WNW 4.3 km/h -1607.7 km/h 83% 0 mm
12:13 1.4 °C -1.2 °C 793 hPa WNW 9.3 km/h -1607.7 km/h 83% 0 mm
12:28 0.9 °C -1.3 °C 792.7 hPa WSW 4.3 km/h -1607.7 km/h 85% 0 mm
12:44 0.8 °C -1.4 °C 793 hPa ENE 1.8 km/h -1607.7 km/h 85% 0 mm
12:59 0.6 °C -1.6 °C 792.7 hPa NNW 4.3 km/h -1607.7 km/h 85% 0 mm
13:14 1.2 °C -1.2 °C 792.3 hPa WSW 7.6 km/h -1607.7 km/h 84% 0 mm
13:30 0.7 °C -1.2 °C 792.3 hPa WSW 4.3 km/h -1607.7 km/h 87% 0 mm
13:46 0.6 °C -1.3 °C 792.3 hPa NW 6 km/h -1607.7 km/h 87% 0 mm
14:01 0 °C -1.6 °C 792.3 hPa WNW 2.7 km/h -1607.7 km/h 89% 0 mm
14:16 -0.2 °C -1.5 °C 792 hPa NE 7.6 km/h -1607.7 km/h 91% 0 mm
14:31 0.7 °C -1.3 °C 792 hPa Calm   -1607.7 km/h 86% 0 mm
14:46 0.9 °C -1.8 °C 791.6 hPa North 7.6 km/h -1607.7 km/h 82% 0 mm
15:02 0.4 °C -1.7 °C 792 hPa WNW 6.8 km/h -1607.7 km/h 86% 0 mm
15:17 0.2 °C -1.7 °C 791.6 hPa ESE 1.8 km/h -1607.7 km/h 87% 0 mm
15:35 0.2 °C -1.7 °C 791.6 hPa NNE 4.3 km/h -1607.7 km/h 87% 0 mm
15:50 0.3 °C -1.6 °C 791.6 hPa NE 2.7 km/h -1607.7 km/h 87% 0 mm
16:05 0.4 °C -1.7 °C 791.3 hPa WNW 10.9 km/h -1607.7 km/h 86% 0 mm
16:21 -0.2 °C -1.8 °C 791.3 hPa ESE 4.3 km/h -1607.7 km/h 89% 0 mm
16:38 -0.8 °C -2.1 °C 791.3 hPa Calm   -1607.7 km/h 91% 0 mm
16:53 -1.3 °C -2 °C 791.3 hPa ENE 5.1 km/h -1607.7 km/h 95% 0 mm
17:08 -1.3 °C -2 °C 791 hPa SW 5.1 km/h -1607.7 km/h 95% 0 mm
17:24 -1.2 °C -1.9 °C 791 hPa NNW 2.7 km/h -1607.7 km/h 95% 0 mm
17:40 -1.3 °C -2 °C 790.6 hPa Calm   -1607.7 km/h 95% 0 mm
17:55 -1.3 °C -2 °C 791 hPa NW 4.3 km/h -1607.7 km/h 95% 0 mm
18:10 -1.3 °C -2 °C 791 hPa ESE 8.5 km/h -1607.7 km/h 95% 0 mm
18:25 -1.5 °C -1.9 °C 790.6 hPa East 4.3 km/h -1607.7 km/h 97% 0 mm
18:40 -1.4 °C -1.8 °C 790.6 hPa East 1.8 km/h -1607.7 km/h 97% 0 mm
18:56 -1.3 °C -1.7 °C 790.6 hPa Calm   -1607.7 km/h 97% 0 mm
19:11 -1.3 °C -1.8 °C 790.6 hPa SE 3.5 km/h -1607.7 km/h 96% 0 mm
19:26 -1.3 °C -1.8 °C 790.6 hPa ESE 6 km/h -1607.7 km/h 96% 0 mm
19:41 -1.4 °C -1.9 °C 790 hPa NW 2.7 km/h -1607.7 km/h 96% 0 mm
19:57 -1.4 °C -1.9 °C 790 hPa Calm   -1607.7 km/h 96% 0 mm
20:12 -1.4 °C -1.9 °C 789.6 hPa Calm   -1607.7 km/h 96% 0 mm
20:28 -1.4 °C -1.9 °C 789.6 hPa South 4.3 km/h -1607.7 km/h 96% 0 mm
20:43 -1.5 °C -2.1 °C 789.6 hPa SSW 5.1 km/h -1607.7 km/h 96% 0 mm
20:58 -1.4 °C -1.9 °C 789.6 hPa NE 4.3 km/h -1607.7 km/h 96% 0 mm
21:13 -1.4 °C -1.9 °C 789.6 hPa ESE 4.3 km/h -1607.7 km/h 96% 0 mm
21:28 -1.3 °C -1.8 °C 790.3 hPa NE 7.6 km/h -1607.7 km/h 96% 0 mm
21:44 -1.5 °C -2.1 °C 790.3 hPa South 9.3 km/h -1607.7 km/h 96% 0 mm
21:59 -1.7 °C -2.3 °C 790.3 hPa NNW 12.6 km/h -1607.7 km/h 96% 0 mm
22:14 -1.8 °C -2.5 °C 790.3 hPa SE 6.8 km/h -1607.7 km/h 95% 0 mm
22:30 -2 °C -2.6 °C 790.3 hPa SSW 12.6 km/h -1607.7 km/h 96% 0 mm
22:45 -2.4 °C -3.2 °C 790.3 hPa WNW 15.9 km/h -1607.7 km/h 94% 0 mm
23:00 -2.7 °C -3.3 °C 790.6 hPa NNW 13.4 km/h -1607.7 km/h 96% 0 mm
23:16 -2.9 °C -3.6 °C 790.6 hPa West 10.1 km/h -1607.7 km/h 95% 0 mm
23:31 -2.8 °C -3.3 °C 790.3 hPa SSE 4.3 km/h -1607.7 km/h 96% 0 mm
23:46 -2.8 °C -3.3 °C 790.3 hPa WSW 7.6 km/h -1607.7 km/h 96% 0 mm
Big Bear CA Weather